Capitol Logistics 7376

Operating for MZN



KSMF
Sacramento International Airport
Sacramento, California
KABE
Lehigh Valley International Airport
Allentown, Pennsylvania

Activity Log

Date Flight Route Aircraft Duration
No Flights Yet

Route Details

Aircraft Information
Primary: Boeing 767-300BDSF
Backup: Boeing 757-200SF
Route Data
Distance: 2114nm
Duration: 4h 28m
Recm'd Route: SCTWN3 MACUS Q122 LCU J158 MLD DDY ONL J94 FOD BDF BVT ROD J152 HAR ETX
Origin Wx: KSMF 180153Z 34010G18KT 10SM CLR 28/M04 A2995 RMK AO2 SLP143 T02781039
Dest. Wx: KABE 180151Z 29003KT 10SM OVC080 09/02 A2984 RMK AO2 SLP107 T00890017
Notes: